createdAt,value
2017-10-05T00:00:06.357Z,1004.50
2017-10-05T00:01:07.783Z,1004.45
2017-10-05T00:02:09.203Z,1004.43
2017-10-05T00:03:10.635Z,1004.48
2017-10-05T00:04:12.051Z,1004.48
2017-10-05T00:05:13.470Z,1004.51
2017-10-05T00:06:14.886Z,1004.53
2017-10-05T00:07:16.299Z,1004.50
2017-10-05T00:08:17.713Z,1004.51
2017-10-05T00:09:19.129Z,1004.50
2017-10-05T00:10:20.541Z,1004.51
2017-10-05T00:11:21.957Z,1004.37
2017-10-05T00:12:23.372Z,1004.33
2017-10-05T00:13:24.783Z,1004.33
2017-10-05T00:14:26.191Z,1004.20
2017-10-05T00:15:27.611Z,1004.13
2017-10-05T00:16:29.018Z,1004.08
2017-10-05T00:17:30.429Z,1004.06
2017-10-05T00:18:31.848Z,1003.99
2017-10-05T00:19:33.274Z,1004.01
2017-10-05T00:20:34.688Z,1003.93
2017-10-05T00:21:36.100Z,1004.00
2017-10-05T00:22:37.509Z,1003.99
2017-10-05T00:23:38.932Z,1004.01
2017-10-05T00:24:40.350Z,1004.05
2017-10-05T00:25:41.763Z,1004.02
2017-10-05T00:26:43.178Z,1004.01
2017-10-05T00:27:44.593Z,1004.04
2017-10-05T00:28:46.012Z,1004.00
2017-10-05T00:29:47.437Z,1004.03
2017-10-05T00:30:48.864Z,1004.00
2017-10-05T00:31:50.283Z,1003.98
2017-10-05T00:32:51.709Z,1003.94
2017-10-05T00:33:53.121Z,1003.89
2017-10-05T00:34:54.552Z,1003.82
2017-10-05T00:35:55.965Z,1003.79
2017-10-05T00:36:57.387Z,1003.82
2017-10-05T00:37:58.806Z,1003.76
2017-10-05T00:39:00.220Z,1003.75
2017-10-05T00:40:01.635Z,1003.74
2017-10-05T00:41:03.052Z,1003.67
2017-10-05T00:42:04.473Z,1003.68
2017-10-05T00:43:05.886Z,1003.65
2017-10-05T00:44:07.306Z,1003.64
2017-10-05T00:45:08.721Z,1003.56
2017-10-05T00:46:10.145Z,1003.51
2017-10-05T00:47:11.563Z,1003.45
2017-10-05T00:48:12.987Z,1003.48
2017-10-05T00:49:14.406Z,1003.46
2017-10-05T00:50:15.819Z,1003.35
2017-10-05T00:51:17.234Z,1003.40
2017-10-05T00:52:18.650Z,1003.36
2017-10-05T00:53:20.074Z,1003.32
2017-10-05T00:54:21.486Z,1003.36
2017-10-05T00:55:22.911Z,1003.28
2017-10-05T00:56:24.344Z,1003.23
2017-10-05T00:57:25.761Z,1003.23
2017-10-05T00:58:27.176Z,1003.16
2017-10-05T00:59:28.594Z,1003.09
2017-10-05T01:00:30.013Z,1003.03
2017-10-05T01:01:31.436Z,1002.92
2017-10-05T01:02:32.854Z,1002.88
2017-10-05T01:03:34.276Z,1002.88
2017-10-05T01:04:35.691Z,1002.90
2017-10-05T01:05:37.111Z,1002.93
2017-10-05T01:06:38.523Z,1002.86
2017-10-05T01:07:39.939Z,1002.87
2017-10-05T01:08:41.356Z,1002.85
2017-10-05T01:09:42.780Z,1002.79
2017-10-05T01:10:44.191Z,1002.74
2017-10-05T01:11:45.607Z,1002.73
2017-10-05T01:12:47.028Z,1002.73
2017-10-05T01:13:48.438Z,1002.70
2017-10-05T01:14:49.856Z,1002.64
2017-10-05T01:15:51.272Z,1002.62
2017-10-05T01:16:52.687Z,1002.55
2017-10-05T01:17:54.117Z,1002.50
2017-10-05T01:18:55.537Z,1002.54
2017-10-05T01:19:56.954Z,1002.54
2017-10-05T01:20:58.369Z,1002.52
2017-10-05T01:21:59.788Z,1002.52
2017-10-05T01:23:01.208Z,1002.45
2017-10-05T01:24:02.621Z,1002.39
2017-10-05T01:25:04.044Z,1002.35
2017-10-05T01:26:05.462Z,1002.36
2017-10-05T01:27:06.878Z,1002.30
2017-10-05T01:28:08.297Z,1002.29
2017-10-05T01:29:09.711Z,1002.25
2017-10-05T01:30:11.124Z,1002.26
2017-10-05T01:31:12.545Z,1002.19
2017-10-05T01:32:13.972Z,1002.09
2017-10-05T01:33:15.393Z,1002.02
2017-10-05T01:34:16.810Z,1001.99
2017-10-05T01:35:18.221Z,1001.94
2017-10-05T01:36:19.640Z,1001.84
2017-10-05T01:37:21.051Z,1001.82
2017-10-05T01:38:22.462Z,1001.77
2017-10-05T01:39:23.874Z,1001.78
2017-10-05T01:40:25.292Z,1001.74
2017-10-05T01:41:26.717Z,1001.69
2017-10-05T01:42:28.135Z,1001.64
2017-10-05T01:43:29.553Z,1001.62
2017-10-05T01:44:30.964Z,1001.58
2017-10-05T01:45:32.432Z,1001.54
2017-10-05T01:46:33.843Z,1001.53
2017-10-05T01:47:35.264Z,1001.46
2017-10-05T01:48:36.684Z,1001.51
2017-10-05T01:49:38.104Z,1001.42
2017-10-05T01:50:39.523Z,1001.37
2017-10-05T01:51:40.946Z,1001.42
2017-10-05T01:52:42.375Z,1001.48
2017-10-05T01:53:43.802Z,1001.39
2017-10-05T01:54:45.249Z,1001.33
2017-10-05T01:55:46.650Z,1001.34
2017-10-05T01:56:48.070Z,1001.38
2017-10-05T01:57:49.481Z,1001.35
2017-10-05T01:58:50.901Z,1001.32
2017-10-05T01:59:52.314Z,1001.29
2017-10-05T02:00:53.731Z,1001.27
2017-10-05T02:01:55.157Z,1001.24
2017-10-05T02:02:56.575Z,1001.17
2017-10-05T02:03:57.989Z,1001.19
2017-10-05T02:04:59.400Z,1001.23
2017-10-05T02:06:00.827Z,1001.13
2017-10-05T02:07:02.238Z,1001.14
2017-10-05T02:08:03.681Z,1001.10
2017-10-05T02:09:05.069Z,1001.06
2017-10-05T02:10:06.490Z,1001.00
2017-10-05T02:11:07.916Z,1001.06
2017-10-05T02:12:09.328Z,1000.95
2017-10-05T02:13:10.751Z,1000.88
2017-10-05T02:14:12.161Z,1000.82
2017-10-05T02:15:13.580Z,1000.81
2017-10-05T02:16:14.996Z,1000.83
2017-10-05T02:17:16.415Z,1000.83
2017-10-05T02:18:17.834Z,1000.71
2017-10-05T02:19:19.259Z,1000.87
2017-10-05T02:20:20.697Z,1000.71
2017-10-05T02:21:22.115Z,1000.70
2017-10-05T02:22:23.537Z,1000.70
2017-10-05T02:23:24.950Z,1000.64
2017-10-05T02:24:26.372Z,1000.66
2017-10-05T02:25:27.809Z,1000.57
2017-10-05T02:26:29.220Z,1000.61
2017-10-05T02:27:30.611Z,1000.57
2017-10-05T02:28:32.026Z,1000.55
2017-10-05T02:29:33.439Z,1000.50
2017-10-05T02:30:34.857Z,1000.47
2017-10-05T02:31:36.275Z,1000.44
2017-10-05T02:32:37.692Z,1000.40
2017-10-05T02:33:39.109Z,1000.33
2017-10-05T02:34:40.527Z,1000.30
2017-10-05T02:35:41.942Z,1000.32
2017-10-05T02:36:43.367Z,1000.32
2017-10-05T02:37:44.780Z,1000.29
2017-10-05T02:38:46.204Z,1000.23
2017-10-05T02:39:47.625Z,1000.15
2017-10-05T02:40:49.042Z,1000.18
2017-10-05T02:41:50.462Z,1000.11
2017-10-05T02:42:51.880Z,1000.10
2017-10-05T02:43:53.296Z,1000.15
2017-10-05T02:44:54.710Z,1000.13
2017-10-05T02:45:56.136Z,1000.12
2017-10-05T02:46:57.556Z,1000.16
2017-10-05T02:47:58.974Z,1000.04
2017-10-05T02:49:00.387Z,1000.01
2017-10-05T02:50:01.821Z,1000.00
2017-10-05T02:51:03.234Z,999.97
2017-10-05T02:52:04.648Z,999.97
2017-10-05T02:53:06.067Z,999.95
2017-10-05T02:54:07.485Z,999.91
2017-10-05T02:55:08.907Z,999.88
2017-10-05T02:56:10.318Z,999.92
2017-10-05T02:57:11.733Z,999.93
2017-10-05T02:58:13.148Z,999.93
2017-10-05T02:59:14.563Z,999.94
2017-10-05T03:00:15.980Z,999.87
2017-10-05T03:01:17.405Z,999.84
2017-10-05T03:02:18.810Z,999.79
2017-10-05T03:03:20.232Z,999.74
2017-10-05T03:04:21.655Z,999.77
2017-10-05T03:05:23.080Z,999.67
2017-10-05T03:06:24.495Z,999.63
2017-10-05T03:07:25.960Z,999.65
2017-10-05T03:08:27.366Z,999.63
2017-10-05T03:09:28.780Z,999.64
2017-10-05T03:10:30.195Z,999.57
2017-10-05T03:11:31.609Z,999.57
2017-10-05T03:12:33.024Z,999.54
2017-10-05T03:13:34.435Z,999.52
2017-10-05T03:14:35.857Z,999.49
2017-10-05T03:15:37.273Z,999.46
2017-10-05T03:16:38.693Z,999.41
2017-10-05T03:17:40.117Z,999.48
2017-10-05T03:18:41.537Z,999.41
2017-10-05T03:19:42.955Z,999.47
2017-10-05T03:20:44.366Z,999.35
2017-10-05T03:21:46.408Z,999.37
2017-10-05T03:22:47.826Z,999.39
2017-10-05T03:23:49.238Z,999.36
2017-10-05T03:24:50.659Z,999.30
2017-10-05T03:25:52.081Z,999.27
2017-10-05T03:26:53.503Z,999.26
2017-10-05T03:27:54.917Z,999.18
2017-10-05T03:28:56.338Z,999.17
2017-10-05T03:29:57.753Z,999.14
2017-10-05T03:30:59.171Z,999.13
2017-10-05T03:32:00.581Z,999.07
2017-10-05T03:33:01.996Z,999.04
2017-10-05T03:34:03.414Z,999.04
2017-10-05T03:35:04.824Z,999.04
2017-10-05T03:36:06.244Z,999.03
2017-10-05T03:37:07.667Z,999.05
2017-10-05T03:38:09.082Z,999.08
2017-10-05T03:39:10.502Z,998.98
2017-10-05T03:40:11.918Z,999.00
2017-10-05T03:41:13.339Z,999.02
2017-10-05T03:42:14.761Z,998.92
2017-10-05T03:43:16.175Z,998.89
2017-10-05T03:44:17.595Z,998.93
2017-10-05T03:45:19.068Z,998.80
2017-10-05T03:46:20.491Z,998.70
2017-10-05T03:47:21.907Z,998.64
2017-10-05T03:48:23.331Z,998.61
2017-10-05T03:49:24.746Z,998.62
2017-10-05T03:50:26.167Z,998.58
2017-10-05T03:51:27.573Z,998.62
2017-10-05T03:52:28.991Z,998.54
2017-10-05T03:53:30.417Z,998.53
2017-10-05T03:54:31.829Z,998.53
2017-10-05T03:55:33.252Z,998.46
2017-10-05T03:56:34.671Z,998.48
2017-10-05T03:57:36.085Z,998.42
2017-10-05T03:58:37.497Z,998.43
2017-10-05T03:59:38.914Z,998.43
2017-10-05T04:00:40.333Z,998.47
2017-10-05T04:01:41.744Z,998.47
2017-10-05T04:02:43.165Z,998.42
2017-10-05T04:03:44.582Z,998.37
2017-10-05T04:04:46.003Z,998.27
2017-10-05T04:05:47.417Z,998.19
2017-10-05T04:06:48.834Z,998.09
2017-10-05T04:07:50.244Z,998.09
2017-10-05T04:08:51.661Z,998.11
2017-10-05T04:09:53.076Z,998.02
2017-10-05T04:10:54.495Z,998.05
2017-10-05T04:11:55.927Z,998.06
2017-10-05T04:12:57.331Z,998.04
2017-10-05T04:13:58.757Z,998.04
2017-10-05T04:15:00.173Z,998.09
2017-10-05T04:16:01.597Z,998.10
2017-10-05T04:17:03.009Z,998.06
2017-10-05T04:18:04.427Z,998.02
2017-10-05T04:19:07.058Z,998.00
2017-10-05T04:20:08.475Z,997.99
2017-10-05T04:21:09.896Z,998.00
2017-10-05T04:22:11.322Z,998.01
2017-10-05T04:23:12.740Z,997.96
2017-10-05T04:24:14.151Z,997.91
2017-10-05T04:25:15.560Z,997.95
2017-10-05T04:26:16.972Z,997.87
2017-10-05T04:27:18.390Z,997.85
2017-10-05T04:28:19.802Z,997.80
2017-10-05T04:29:21.220Z,997.78
2017-10-05T04:30:22.640Z,997.79
2017-10-05T04:31:24.064Z,997.83
2017-10-05T04:32:25.484Z,997.79
2017-10-05T04:33:26.899Z,997.74
2017-10-05T04:34:28.315Z,997.78
2017-10-05T04:35:29.730Z,997.80
2017-10-05T04:36:31.144Z,997.73
2017-10-05T04:37:32.561Z,997.60
2017-10-05T04:38:33.973Z,997.51
2017-10-05T04:39:35.390Z,997.48
2017-10-05T04:40:36.810Z,997.43
2017-10-05T04:41:38.221Z,997.48
2017-10-05T04:42:39.648Z,997.44
2017-10-05T04:43:41.065Z,997.34
2017-10-05T04:44:42.487Z,997.39
2017-10-05T04:45:43.903Z,997.42
2017-10-05T04:46:45.316Z,997.37
2017-10-05T04:47:46.738Z,997.32
2017-10-05T04:48:48.154Z,997.27
2017-10-05T04:49:49.568Z,997.27
2017-10-05T04:50:50.980Z,997.25
2017-10-05T04:51:52.389Z,997.23
2017-10-05T04:52:53.805Z,997.15
2017-10-05T04:53:55.223Z,997.08
2017-10-05T04:54:56.634Z,997.07
2017-10-05T04:55:58.051Z,997.07
2017-10-05T04:56:59.470Z,997.00
2017-10-05T04:58:00.882Z,997.07
2017-10-05T04:59:02.302Z,997.05
2017-10-05T05:00:03.714Z,996.99
2017-10-05T05:01:05.133Z,996.94
2017-10-05T05:02:06.551Z,997.12
2017-10-05T05:03:07.963Z,996.96
2017-10-05T05:04:09.378Z,996.98
2017-10-05T05:05:10.788Z,996.90
2017-10-05T05:06:12.235Z,996.86
2017-10-05T05:07:13.655Z,996.88
2017-10-05T05:08:15.086Z,996.80
2017-10-05T05:09:16.504Z,996.81
2017-10-05T05:10:17.923Z,996.76
2017-10-05T05:11:19.341Z,996.69
2017-10-05T05:12:20.754Z,996.72
2017-10-05T05:13:22.172Z,996.73
2017-10-05T05:14:23.589Z,996.65
2017-10-05T05:15:25.007Z,996.66
2017-10-05T05:16:26.423Z,996.65
2017-10-05T05:17:27.845Z,996.67
2017-10-05T05:18:29.258Z,996.66
2017-10-05T05:19:30.679Z,996.64
2017-10-05T05:20:32.092Z,996.66
2017-10-05T05:21:33.513Z,996.53
2017-10-05T05:22:34.928Z,996.53
2017-10-05T05:23:36.342Z,996.57
2017-10-05T05:24:37.778Z,996.49
2017-10-05T05:25:39.198Z,996.46
2017-10-05T05:26:40.613Z,996.38
2017-10-05T05:27:42.036Z,996.37
2017-10-05T05:28:43.452Z,996.45
2017-10-05T05:29:44.865Z,996.38
2017-10-05T05:30:46.280Z,996.37
2017-10-05T05:31:47.701Z,996.36
2017-10-05T05:32:49.116Z,996.23
2017-10-05T05:33:50.538Z,996.20
2017-10-05T05:34:51.944Z,996.20
2017-10-05T05:35:53.366Z,996.20
2017-10-05T05:36:54.783Z,996.25
2017-10-05T05:37:56.197Z,996.11
2017-10-05T05:38:57.613Z,995.97
2017-10-05T05:39:59.037Z,996.01
2017-10-05T05:41:00.459Z,996.03
2017-10-05T05:42:01.872Z,996.02
2017-10-05T05:43:03.286Z,995.95
2017-10-05T05:44:04.710Z,995.98
2017-10-05T05:45:06.127Z,995.95
2017-10-05T05:46:07.548Z,995.93
2017-10-05T05:47:08.971Z,996.04
2017-10-05T05:48:10.389Z,995.92
2017-10-05T05:49:11.806Z,995.98
2017-10-05T05:50:13.223Z,995.99
2017-10-05T05:51:14.645Z,995.85
2017-10-05T05:52:16.061Z,995.80
2017-10-05T05:53:17.483Z,995.85
2017-10-05T05:54:18.921Z,995.66
2017-10-05T05:55:20.331Z,995.75
2017-10-05T05:56:21.746Z,995.77
2017-10-05T05:57:23.164Z,995.80
2017-10-05T05:58:24.579Z,995.69
2017-10-05T05:59:25.995Z,995.61
2017-10-05T06:00:27.416Z,995.52
2017-10-05T06:01:28.837Z,995.53
2017-10-05T06:02:30.252Z,995.52
2017-10-05T06:03:31.673Z,995.64
2017-10-05T06:04:33.093Z,995.63
2017-10-05T06:05:34.505Z,995.60
2017-10-05T06:06:35.920Z,995.57
2017-10-05T06:07:37.336Z,995.49
2017-10-05T06:08:38.753Z,995.54
2017-10-05T06:09:40.168Z,995.48
2017-10-05T06:10:41.584Z,995.40
2017-10-05T06:11:42.998Z,995.46
2017-10-05T06:12:44.409Z,995.46
2017-10-05T06:13:45.827Z,995.54
2017-10-05T06:14:47.242Z,995.45
2017-10-05T06:15:48.657Z,995.34
2017-10-05T06:16:50.076Z,995.35
2017-10-05T06:17:51.492Z,995.48
2017-10-05T06:18:52.911Z,995.30
2017-10-05T06:19:54.329Z,995.45
2017-10-05T06:20:55.744Z,995.28
2017-10-05T06:21:57.161Z,995.22
2017-10-05T06:22:58.573Z,995.18
2017-10-05T06:23:59.982Z,995.22
2017-10-05T06:25:01.410Z,995.21
2017-10-05T06:26:02.867Z,995.27
2017-10-05T06:27:04.285Z,995.29
2017-10-05T06:28:05.700Z,995.17
2017-10-05T06:29:07.137Z,995.08
2017-10-05T06:30:08.538Z,995.06
2017-10-05T06:31:09.958Z,994.94
2017-10-05T06:32:11.376Z,995.00
2017-10-05T06:33:12.793Z,995.22
2017-10-05T06:34:14.213Z,995.18
2017-10-05T06:35:15.627Z,995.38
2017-10-05T06:36:17.046Z,995.33
2017-10-05T06:37:18.463Z,995.20
2017-10-05T06:38:19.885Z,995.04
2017-10-05T06:39:21.301Z,994.97
2017-10-05T06:40:22.718Z,995.09
2017-10-05T06:41:24.124Z,995.12
2017-10-05T06:42:25.541Z,995.02
2017-10-05T06:43:26.951Z,995.08
2017-10-05T06:44:28.369Z,995.07
2017-10-05T06:45:29.789Z,995.03
2017-10-05T06:46:31.213Z,994.92
2017-10-05T06:47:32.633Z,995.00
2017-10-05T06:48:34.066Z,994.90
2017-10-05T06:49:35.487Z,994.90
2017-10-05T06:50:36.907Z,994.89
2017-10-05T06:51:38.329Z,994.89
2017-10-05T06:52:39.745Z,994.67
2017-10-05T06:53:41.169Z,994.81
2017-10-05T06:54:42.681Z,994.74
2017-10-05T06:55:44.098Z,994.76
2017-10-05T06:56:45.516Z,994.78
2017-10-05T06:57:46.933Z,994.80
2017-10-05T06:58:48.504Z,994.72
2017-10-05T06:59:49.924Z,994.83
2017-10-05T07:00:51.339Z,994.80
2017-10-05T07:01:52.772Z,994.75
2017-10-05T07:02:54.193Z,994.71
2017-10-05T07:03:55.616Z,994.72
2017-10-05T07:04:57.036Z,994.64
2017-10-05T07:05:58.456Z,994.61
2017-10-05T07:06:59.875Z,994.63
2017-10-05T07:08:01.296Z,994.66
2017-10-05T07:09:02.713Z,994.59
2017-10-05T07:10:04.133Z,994.64
2017-10-05T07:11:05.555Z,994.65
2017-10-05T07:12:06.974Z,994.71
2017-10-05T07:13:08.398Z,994.75
2017-10-05T07:14:09.818Z,994.62
2017-10-05T07:15:11.264Z,994.61
2017-10-05T07:16:12.676Z,994.71
2017-10-05T07:17:14.097Z,994.53
2017-10-05T07:18:15.520Z,994.58
2017-10-05T07:19:16.939Z,994.50
2017-10-05T07:20:18.355Z,994.51
2017-10-05T07:21:19.780Z,994.44
2017-10-05T07:22:21.209Z,994.44
2017-10-05T07:23:22.632Z,994.29
2017-10-05T07:24:24.053Z,994.21
2017-10-05T07:25:25.468Z,993.85
2017-10-05T07:26:26.888Z,993.55
2017-10-05T07:27:28.301Z,993.20
2017-10-05T07:28:29.725Z,993.13
2017-10-05T07:29:31.137Z,992.99
2017-10-05T07:30:32.556Z,992.97
2017-10-05T07:31:33.978Z,992.83
2017-10-05T07:32:35.411Z,992.75
2017-10-05T07:33:36.831Z,992.73
2017-10-05T07:34:38.247Z,992.66
2017-10-05T07:35:39.666Z,992.81
2017-10-05T07:36:41.089Z,992.75
2017-10-05T07:37:42.518Z,992.25
2017-10-05T07:38:43.940Z,991.77
2017-10-05T07:39:45.354Z,991.67
2017-10-05T07:40:46.774Z,991.78
2017-10-05T07:41:48.184Z,991.81
2017-10-05T07:42:49.610Z,992.02
2017-10-05T07:43:51.040Z,991.99
2017-10-05T07:44:52.464Z,992.09
2017-10-05T07:45:54.996Z,991.86
2017-10-05T07:46:56.419Z,991.96
2017-10-05T07:47:57.848Z,991.94
2017-10-05T07:48:59.281Z,991.97
2017-10-05T07:50:00.706Z,991.95
2017-10-05T07:51:02.132Z,991.93
2017-10-05T07:52:03.547Z,992.01
2017-10-05T07:53:05.279Z,991.99
2017-10-05T07:54:06.991Z,992.09
2017-10-05T07:55:08.501Z,992.07
2017-10-05T07:56:09.922Z,991.93
2017-10-05T07:57:11.388Z,992.11
2017-10-05T07:58:12.821Z,991.99
2017-10-05T07:59:14.235Z,992.22
2017-10-05T08:00:15.655Z,992.12
2017-10-05T08:01:17.075Z,992.03
2017-10-05T08:02:18.497Z,992.19
2017-10-05T08:03:19.911Z,992.16
2017-10-05T08:04:21.332Z,992.21
2017-10-05T08:05:22.753Z,992.15
2017-10-05T08:06:24.177Z,992.12
2017-10-05T08:07:25.588Z,992.13
2017-10-05T08:08:27.010Z,992.13
2017-10-05T08:09:28.429Z,992.15
2017-10-05T08:10:29.852Z,991.99
2017-10-05T08:11:31.264Z,992.15
2017-10-05T08:12:32.686Z,992.01
2017-10-05T08:13:34.111Z,992.04
2017-10-05T08:14:35.530Z,992.07
2017-10-05T08:15:36.952Z,992.08
2017-10-05T08:16:38.370Z,992.14
2017-10-05T08:17:39.788Z,992.00
2017-10-05T08:18:41.223Z,991.96
2017-10-05T08:19:42.651Z,992.11
2017-10-05T08:20:44.078Z,992.13
2017-10-05T08:21:45.510Z,992.13
2017-10-05T08:22:46.932Z,992.06
2017-10-05T08:23:48.352Z,992.12
2017-10-05T08:24:49.784Z,992.24
2017-10-05T08:25:51.196Z,992.11
2017-10-05T08:26:52.614Z,992.05
2017-10-05T08:27:54.032Z,992.19
2017-10-05T08:28:55.448Z,992.00
2017-10-05T08:29:56.877Z,992.03
2017-10-05T08:30:58.293Z,992.06
2017-10-05T08:31:59.710Z,992.01
2017-10-05T08:33:01.139Z,991.94
2017-10-05T08:34:02.581Z,992.10
2017-10-05T08:35:03.999Z,992.16
2017-10-05T08:36:05.407Z,992.07
2017-10-05T08:37:06.826Z,992.05
2017-10-05T08:38:08.247Z,992.06
2017-10-05T08:39:09.671Z,992.11
2017-10-05T08:40:11.093Z,991.99
2017-10-05T08:41:12.514Z,992.11
2017-10-05T08:42:13.933Z,992.06
2017-10-05T08:43:15.361Z,992.05
2017-10-05T08:44:16.775Z,991.96
2017-10-05T08:45:18.197Z,992.06
2017-10-05T08:46:19.621Z,992.07
2017-10-05T08:47:21.035Z,992.13
2017-10-05T08:48:22.452Z,991.92
2017-10-05T08:49:23.869Z,992.00
2017-10-05T08:50:25.317Z,991.97
2017-10-05T08:51:26.740Z,991.82
2017-10-05T08:52:28.165Z,992.01
2017-10-05T08:53:29.592Z,991.85
2017-10-05T08:54:31.008Z,991.95
2017-10-05T08:55:32.432Z,991.96
2017-10-05T08:56:33.853Z,991.93
2017-10-05T08:57:35.277Z,991.68
2017-10-05T08:58:36.704Z,991.53
2017-10-05T08:59:38.118Z,991.47
2017-10-05T09:00:39.535Z,991.38
2017-10-05T09:01:40.956Z,991.51
2017-10-05T09:02:42.375Z,991.56
2017-10-05T09:03:43.796Z,991.62
2017-10-05T09:04:45.224Z,991.65
2017-10-05T09:05:46.635Z,991.64
2017-10-05T09:06:48.052Z,991.66
2017-10-05T09:07:49.478Z,991.67
2017-10-05T09:08:50.908Z,991.73
2017-10-05T09:09:52.327Z,991.80
2017-10-05T09:10:53.741Z,991.71
2017-10-05T09:11:55.166Z,991.85
2017-10-05T09:12:56.587Z,991.71
2017-10-05T09:13:58.011Z,991.78
2017-10-05T09:14:59.429Z,991.73
2017-10-05T09:16:00.854Z,991.68
2017-10-05T09:17:02.268Z,991.80
2017-10-05T09:18:03.689Z,991.75
2017-10-05T09:19:05.118Z,991.79
2017-10-05T09:20:06.621Z,991.76
2017-10-05T09:21:08.043Z,991.85
2017-10-05T09:22:09.486Z,991.89
2017-10-05T09:23:10.905Z,991.83
2017-10-05T09:24:12.319Z,991.85
2017-10-05T09:25:13.743Z,991.84
2017-10-05T09:26:15.158Z,991.74
2017-10-05T09:27:16.576Z,991.82
2017-10-05T09:28:17.995Z,991.75
2017-10-05T09:29:19.424Z,991.87
2017-10-05T09:30:20.828Z,991.99
2017-10-05T09:31:22.277Z,991.89
2017-10-05T09:32:23.676Z,991.94
2017-10-05T09:33:25.098Z,991.75
2017-10-05T09:34:26.515Z,991.96
2017-10-05T09:35:27.944Z,991.93
2017-10-05T09:36:29.355Z,991.98
2017-10-05T09:37:30.778Z,992.09
2017-10-05T09:38:32.200Z,991.90
2017-10-05T09:39:33.623Z,991.97
2017-10-05T09:40:35.051Z,991.98
2017-10-05T09:41:36.478Z,991.97
2017-10-05T09:42:37.897Z,991.91
2017-10-05T09:43:39.319Z,992.01
2017-10-05T09:44:40.743Z,991.82
2017-10-05T09:45:42.175Z,991.90
2017-10-05T09:46:43.600Z,991.88
2017-10-05T09:47:45.029Z,991.89
2017-10-05T09:48:46.452Z,991.93
2017-10-05T09:49:47.878Z,992.01
2017-10-05T09:50:50.120Z,992.04
2017-10-05T09:51:51.534Z,992.11
2017-10-05T09:52:52.951Z,992.00
2017-10-05T09:53:54.372Z,991.98
2017-10-05T09:54:55.795Z,991.97
2017-10-05T09:55:57.220Z,991.91
2017-10-05T09:56:59.190Z,992.07
2017-10-05T09:58:00.609Z,992.07
2017-10-05T09:59:02.029Z,991.96
2017-10-05T10:00:03.445Z,992.10
2017-10-05T10:01:04.868Z,992.12
2017-10-05T10:02:06.297Z,992.01
2017-10-05T10:03:07.724Z,992.17
2017-10-05T10:04:09.144Z,992.27
2017-10-05T10:05:10.567Z,992.24
2017-10-05T10:06:11.992Z,992.20
2017-10-05T10:07:13.420Z,992.28
2017-10-05T10:08:14.847Z,992.48
2017-10-05T10:09:16.267Z,992.40
2017-10-05T10:10:17.682Z,992.51
2017-10-05T10:11:19.103Z,992.50
2017-10-05T10:12:20.527Z,992.69
2017-10-05T10:13:21.944Z,992.29
2017-10-05T10:14:23.366Z,992.63
2017-10-05T10:15:24.787Z,992.76
2017-10-05T10:16:26.215Z,992.83
2017-10-05T10:17:27.625Z,993.00
2017-10-05T10:18:29.066Z,992.65
2017-10-05T10:19:30.487Z,991.80
2017-10-05T10:20:31.912Z,991.85
2017-10-05T10:21:33.337Z,991.89
2017-10-05T10:22:34.766Z,992.02
2017-10-05T10:23:36.188Z,992.16
2017-10-05T10:24:37.617Z,992.31
2017-10-05T10:25:39.037Z,992.50
2017-10-05T10:26:40.455Z,992.35
2017-10-05T10:27:41.877Z,992.52
2017-10-05T10:28:43.310Z,992.58
2017-10-05T10:29:44.735Z,992.72
2017-10-05T10:30:46.164Z,992.75
2017-10-05T10:31:47.588Z,992.86
2017-10-05T10:32:49.007Z,992.87
2017-10-05T10:33:50.427Z,993.07
2017-10-05T10:34:51.851Z,993.05
2017-10-05T10:35:53.284Z,993.21
2017-10-05T10:36:54.702Z,993.22
2017-10-05T10:37:56.122Z,993.33
2017-10-05T10:38:57.553Z,993.46
2017-10-05T10:39:58.985Z,993.63
2017-10-05T10:41:00.409Z,993.70
2017-10-05T10:42:01.838Z,993.79
2017-10-05T10:43:03.259Z,993.77
2017-10-05T10:44:04.687Z,993.91
2017-10-05T10:45:06.124Z,993.93
2017-10-05T10:46:07.545Z,994.07
2017-10-05T10:47:08.979Z,994.13
2017-10-05T10:48:10.403Z,994.18
2017-10-05T10:49:11.818Z,994.36
2017-10-05T10:50:13.249Z,994.18
2017-10-05T10:51:14.670Z,994.41
2017-10-05T10:52:16.084Z,994.27
2017-10-05T10:53:17.495Z,994.47
2017-10-05T10:54:18.921Z,994.55
2017-10-05T10:55:20.348Z,994.77
2017-10-05T10:56:21.770Z,994.68
2017-10-05T10:57:23.189Z,994.71
2017-10-05T10:58:24.625Z,994.83
2017-10-05T10:59:26.053Z,994.97
2017-10-05T11:00:27.479Z,994.98
2017-10-05T11:01:28.907Z,995.21
2017-10-05T11:02:30.329Z,995.27
2017-10-05T11:03:31.778Z,995.60
2017-10-05T11:04:33.200Z,995.55
2017-10-05T11:05:34.634Z,995.64
2017-10-05T11:06:36.053Z,995.75
2017-10-05T11:07:37.484Z,995.67
2017-10-05T11:08:38.907Z,995.96
2017-10-05T11:09:40.333Z,995.96
2017-10-05T11:10:41.751Z,996.09
2017-10-05T11:11:43.173Z,996.14
2017-10-05T11:12:44.591Z,996.17
2017-10-05T11:13:46.004Z,996.00
2017-10-05T11:14:47.430Z,996.16
2017-10-05T11:15:48.849Z,996.25
2017-10-05T11:16:50.269Z,996.39
2017-10-05T11:17:51.692Z,996.53
2017-10-05T11:18:53.122Z,996.46
2017-10-05T11:19:54.547Z,996.46
2017-10-05T11:20:55.964Z,996.57
2017-10-05T11:21:57.385Z,996.52
2017-10-05T11:22:58.807Z,996.56
2017-10-05T11:24:00.245Z,996.60
2017-10-05T11:25:01.669Z,996.57
2017-10-05T11:26:03.089Z,996.63
2017-10-05T11:27:04.517Z,996.60
2017-10-05T11:28:05.945Z,996.82
2017-10-05T11:29:07.366Z,996.63
2017-10-05T11:30:08.817Z,996.92
2017-10-05T11:31:10.207Z,997.00
2017-10-05T11:32:11.629Z,996.98
2017-10-05T11:33:13.049Z,997.06
2017-10-05T11:34:14.501Z,996.98
2017-10-05T11:35:15.896Z,996.98
2017-10-05T11:36:17.321Z,996.90
2017-10-05T11:37:18.734Z,996.94
2017-10-05T11:38:20.151Z,996.91
2017-10-05T11:39:21.573Z,996.89
2017-10-05T11:40:22.991Z,996.95
2017-10-05T11:41:24.405Z,996.97
2017-10-05T11:42:25.826Z,997.01
2017-10-05T11:43:27.246Z,997.08
2017-10-05T11:44:28.671Z,997.11
2017-10-05T11:45:30.090Z,997.09
2017-10-05T11:46:31.509Z,997.10
2017-10-05T11:47:32.929Z,997.13
2017-10-05T11:48:34.357Z,997.02
2017-10-05T11:49:35.774Z,997.11
2017-10-05T11:50:37.196Z,997.09
2017-10-05T11:51:38.623Z,997.04
2017-10-05T11:52:40.107Z,997.13
2017-10-05T11:53:41.530Z,997.27
2017-10-05T11:54:42.972Z,997.48
2017-10-05T11:55:44.394Z,997.48
2017-10-05T11:56:45.808Z,997.46
2017-10-05T11:57:47.236Z,997.43
2017-10-05T11:58:48.662Z,997.42
2017-10-05T11:59:50.091Z,997.52
2017-10-05T12:00:51.512Z,997.85
2017-10-05T12:01:52.941Z,997.89
2017-10-05T12:02:54.363Z,998.14
2017-10-05T12:03:55.813Z,998.12
2017-10-05T12:04:57.217Z,997.92
2017-10-05T12:05:58.645Z,997.92
2017-10-05T12:07:00.095Z,998.01
2017-10-05T12:08:01.530Z,998.20
2017-10-05T12:09:02.965Z,998.53
2017-10-05T12:10:04.386Z,998.90
2017-10-05T12:11:05.865Z,999.13
2017-10-05T12:12:07.286Z,999.04
2017-10-05T12:13:08.712Z,999.05
2017-10-05T12:14:10.137Z,998.86
2017-10-05T12:15:11.566Z,998.93
2017-10-05T12:16:13.004Z,999.16
2017-10-05T12:17:14.444Z,998.96
2017-10-05T12:18:15.872Z,998.92
2017-10-05T12:19:17.303Z,998.77
2017-10-05T12:20:18.720Z,998.74
2017-10-05T12:21:20.141Z,998.64
2017-10-05T12:22:21.568Z,998.70
2017-10-05T12:23:23.007Z,998.83
2017-10-05T12:24:24.433Z,998.66
2017-10-05T12:25:25.866Z,998.91
2017-10-05T12:26:27.296Z,999.26
2017-10-05T12:27:28.727Z,999.16
2017-10-05T12:28:30.161Z,999.05
2017-10-05T12:29:31.594Z,998.99
2017-10-05T12:30:33.035Z,998.75
2017-10-05T12:31:34.457Z,998.63
2017-10-05T12:32:35.882Z,998.60
2017-10-05T12:33:37.307Z,998.55
2017-10-05T12:34:38.740Z,998.44
2017-10-05T12:35:40.163Z,998.42
2017-10-05T12:36:41.585Z,998.39
2017-10-05T12:37:43.014Z,998.27
2017-10-05T12:38:44.434Z,998.37
2017-10-05T12:39:45.862Z,998.46
2017-10-05T12:40:47.276Z,998.46